sensor_id;sensor_type;location;lat;lon;timestamp;P1;durP1;ratioP1;P2;durP2;ratioP2
75413;SDS011;64758;52.122;5.404;2023-02-15T00:01:09;30.15;;;13.23;;
75413;SDS011;64758;52.122;5.404;2023-02-15T00:03:37;30.50;;;13.82;;
75413;SDS011;64758;52.122;5.404;2023-02-15T00:06:04;24.08;;;12.68;;
75413;SDS011;64758;52.122;5.404;2023-02-15T00:08:31;25.27;;;12.77;;
75413;SDS011;64758;52.122;5.404;2023-02-15T00:11:07;26.83;;;12.77;;
75413;SDS011;64758;52.122;5.404;2023-02-15T00:13:38;25.17;;;12.13;;
75413;SDS011;64758;52.122;5.404;2023-02-15T00:16:09;27.13;;;12.45;;
75413;SDS011;64758;52.122;5.404;2023-02-15T00:18:38;25.30;;;12.43;;
75413;SDS011;64758;52.122;5.404;2023-02-15T00:21:06;26.33;;;12.32;;
75413;SDS011;64758;52.122;5.404;2023-02-15T00:23:34;27.20;;;12.30;;
75413;SDS011;64758;52.122;5.404;2023-02-15T00:26:09;30.25;;;13.48;;
75413;SDS011;64758;52.122;5.404;2023-02-15T00:28:37;21.00;;;11.85;;
75413;SDS011;64758;52.122;5.404;2023-02-15T00:33:36;25.10;;;12.45;;
75413;SDS011;64758;52.122;5.404;2023-02-15T00:36:04;24.67;;;12.87;;
75413;SDS011;64758;52.122;5.404;2023-02-15T00:38:32;27.20;;;13.25;;
75413;SDS011;64758;52.122;5.404;2023-02-15T00:41:00;26.05;;;12.77;;
75413;SDS011;64758;52.122;5.404;2023-02-15T00:43:30;24.02;;;12.90;;
75413;SDS011;64758;52.122;5.404;2023-02-15T00:45:57;27.88;;;13.23;;
75413;SDS011;64758;52.122;5.404;2023-02-15T00:48:24;32.00;;;14.20;;
75413;SDS011;64758;52.122;5.404;2023-02-15T00:50:52;26.30;;;13.63;;
75413;SDS011;64758;52.122;5.404;2023-02-15T00:53:20;27.67;;;13.85;;
75413;SDS011;64758;52.122;5.404;2023-02-15T00:55:47;30.83;;;14.20;;
75413;SDS011;64758;52.122;5.404;2023-02-15T00:58:14;30.38;;;13.93;;
75413;SDS011;64758;52.122;5.404;2023-02-15T01:00:42;35.73;;;14.13;;
75413;SDS011;64758;52.122;5.404;2023-02-15T01:03:10;35.65;;;15.88;;
75413;SDS011;64758;52.122;5.404;2023-02-15T01:05:37;36.65;;;15.73;;
75413;SDS011;64758;52.122;5.404;2023-02-15T01:08:04;36.67;;;16.48;;
75413;SDS011;64758;52.122;5.404;2023-02-15T01:10:31;40.22;;;16.83;;
75413;SDS011;64758;52.122;5.404;2023-02-15T01:12:58;35.97;;;16.37;;
75413;SDS011;64758;52.122;5.404;2023-02-15T01:15:24;38.50;;;17.27;;
75413;SDS011;64758;52.122;5.404;2023-02-15T01:17:51;37.88;;;17.08;;
75413;SDS011;64758;52.122;5.404;2023-02-15T01:20:19;34.40;;;15.90;;
75413;SDS011;64758;52.122;5.404;2023-02-15T01:22:48;36.50;;;16.00;;
75413;SDS011;64758;52.122;5.404;2023-02-15T01:25:16;37.33;;;16.37;;
75413;SDS011;64758;52.122;5.404;2023-02-15T01:27:43;34.80;;;15.90;;
75413;SDS011;64758;52.122;5.404;2023-02-15T01:30:10;38.45;;;17.10;;
75413;SDS011;64758;52.122;5.404;2023-02-15T01:32:37;30.58;;;15.82;;
75413;SDS011;64758;52.122;5.404;2023-02-15T01:35:04;38.60;;;16.27;;
75413;SDS011;64758;52.122;5.404;2023-02-15T01:37:31;36.77;;;16.77;;
75413;SDS011;64758;52.122;5.404;2023-02-15T01:39:58;33.22;;;15.75;;
75413;SDS011;64758;52.122;5.404;2023-02-15T01:42:26;32.85;;;16.55;;
75413;SDS011;64758;52.122;5.404;2023-02-15T01:49:50;38.80;;;16.07;;
75413;SDS011;64758;52.122;5.404;2023-02-15T01:52:25;36.83;;;16.00;;
75413;SDS011;64758;52.122;5.404;2023-02-15T01:54:52;38.75;;;15.38;;
75413;SDS011;64758;52.122;5.404;2023-02-15T01:57:19;29.08;;;14.40;;
75413;SDS011;64758;52.122;5.404;2023-02-15T01:59:51;33.53;;;14.93;;
75413;SDS011;64758;52.122;5.404;2023-02-15T02:02:22;31.93;;;14.13;;
75413;SDS011;64758;52.122;5.404;2023-02-15T02:04:51;33.90;;;15.88;;
75413;SDS011;64758;52.122;5.404;2023-02-15T02:07:19;33.53;;;14.77;;
75413;SDS011;64758;52.122;5.404;2023-02-15T02:09:48;33.95;;;15.48;;
75413;SDS011;64758;52.122;5.404;2023-02-15T02:12:15;49.83;;;17.95;;
75413;SDS011;64758;52.122;5.404;2023-02-15T02:14:44;41.43;;;16.30;;
75413;SDS011;64758;52.122;5.404;2023-02-15T02:30:50;36.75;;;16.92;;
75413;SDS011;64758;52.122;5.404;2023-02-15T02:39:33;30.38;;;13.85;;
75413;SDS011;64758;52.122;5.404;2023-02-15T02:42:09;29.23;;;14.23;;
75413;SDS011;64758;52.122;5.404;2023-02-15T02:44:48;36.35;;;15.30;;
75413;SDS011;64758;52.122;5.404;2023-02-15T02:47:23;32.17;;;14.65;;
75413;SDS011;64758;52.122;5.404;2023-02-15T02:50:00;30.35;;;14.52;;
75413;SDS011;64758;52.122;5.404;2023-02-15T02:55:51;29.27;;;13.80;;
75413;SDS011;64758;52.122;5.404;2023-02-15T03:03:19;30.42;;;13.82;;
75413;SDS011;64758;52.122;5.404;2023-02-15T03:05:50;29.85;;;14.80;;
75413;SDS011;64758;52.122;5.404;2023-02-15T03:08:21;29.00;;;13.27;;
75413;SDS011;64758;52.122;5.404;2023-02-15T03:10:56;28.30;;;12.50;;
75413;SDS011;64758;52.122;5.404;2023-02-15T03:13:25;29.10;;;12.82;;
75413;SDS011;64758;52.122;5.404;2023-02-15T03:15:53;28.65;;;12.73;;
75413;SDS011;64758;52.122;5.404;2023-02-15T03:18:47;26.45;;;12.88;;
75413;SDS011;64758;52.122;5.404;2023-02-15T03:21:26;28.53;;;13.13;;
75413;SDS011;64758;52.122;5.404;2023-02-15T03:24:06;26.30;;;12.98;;
75413;SDS011;64758;52.122;5.404;2023-02-15T03:26:42;25.85;;;13.30;;
75413;SDS011;64758;52.122;5.404;2023-02-15T03:29:11;29.20;;;13.73;;
75413;SDS011;64758;52.122;5.404;2023-02-15T03:31:40;34.15;;;15.38;;
75413;SDS011;64758;52.122;5.404;2023-02-15T03:34:12;27.37;;;14.03;;
75413;SDS011;64758;52.122;5.404;2023-02-15T03:36:46;31.42;;;14.65;;
75413;SDS011;64758;52.122;5.404;2023-02-15T03:39:20;29.13;;;13.63;;
75413;SDS011;64758;52.122;5.404;2023-02-15T03:42:10;28.90;;;13.85;;
75413;SDS011;64758;52.122;5.404;2023-02-15T03:44:46;33.60;;;14.15;;
75413;SDS011;64758;52.122;5.404;2023-02-15T03:47:23;33.30;;;15.20;;
75413;SDS011;64758;52.122;5.404;2023-02-15T03:53:07;28.85;;;13.77;;
75413;SDS011;64758;52.122;5.404;2023-02-15T03:55:38;27.38;;;13.48;;
75413;SDS011;64758;52.122;5.404;2023-02-15T03:58:04;27.80;;;13.20;;
75413;SDS011;64758;52.122;5.404;2023-02-15T04:00:55;25.73;;;12.30;;
75413;SDS011;64758;52.122;5.404;2023-02-15T04:04:00;29.23;;;13.85;;
75413;SDS011;64758;52.122;5.404;2023-02-15T04:06:29;29.63;;;12.48;;
75413;SDS011;64758;52.122;5.404;2023-02-15T04:08:56;26.45;;;13.95;;
75413;SDS011;64758;52.122;5.404;2023-02-15T04:11:41;28.40;;;13.38;;
75413;SDS011;64758;52.122;5.404;2023-02-15T04:14:07;26.40;;;12.73;;
75413;SDS011;64758;52.122;5.404;2023-02-15T04:16:52;21.90;;;12.00;;
75413;SDS011;64758;52.122;5.404;2023-02-15T04:19:19;24.08;;;13.00;;
75413;SDS011;64758;52.122;5.404;2023-02-15T04:22:04;26.50;;;13.45;;
75413;SDS011;64758;52.122;5.404;2023-02-15T04:24:48;26.30;;;12.30;;
75413;SDS011;64758;52.122;5.404;2023-02-15T04:27:33;28.53;;;11.80;;
75413;SDS011;64758;52.122;5.404;2023-02-15T04:30:00;25.80;;;12.73;;
75413;SDS011;64758;52.122;5.404;2023-02-15T04:32:26;23.33;;;12.43;;
75413;SDS011;64758;52.122;5.404;2023-02-15T04:34:53;25.25;;;12.55;;
75413;SDS011;64758;52.122;5.404;2023-02-15T04:37:20;27.63;;;12.07;;
75413;SDS011;64758;52.122;5.404;2023-02-15T04:39:46;22.47;;;11.50;;
75413;SDS011;64758;52.122;5.404;2023-02-15T04:42:13;24.52;;;11.73;;
75413;SDS011;64758;52.122;5.404;2023-02-15T04:44:39;24.92;;;12.57;;
75413;SDS011;64758;52.122;5.404;2023-02-15T04:47:06;32.35;;;13.43;;
75413;SDS011;64758;52.122;5.404;2023-02-15T04:49:32;25.08;;;13.02;;
75413;SDS011;64758;52.122;5.404;2023-02-15T04:51:59;26.50;;;12.03;;
75413;SDS011;64758;52.122;5.404;2023-02-15T04:54:25;23.90;;;11.30;;
75413;SDS011;64758;52.122;5.404;2023-02-15T04:56:52;24.92;;;12.45;;
75413;SDS011;64758;52.122;5.404;2023-02-15T04:59:18;29.05;;;12.00;;
75413;SDS011;64758;52.122;5.404;2023-02-15T05:01:45;28.85;;;12.18;;
75413;SDS011;64758;52.122;5.404;2023-02-15T05:04:11;23.50;;;11.90;;
75413;SDS011;64758;52.122;5.404;2023-02-15T05:06:38;25.50;;;11.63;;
75413;SDS011;64758;52.122;5.404;2023-02-15T05:09:04;26.27;;;12.18;;
75413;SDS011;64758;52.122;5.404;2023-02-15T05:11:31;26.00;;;12.77;;
75413;SDS011;64758;52.122;5.404;2023-02-15T05:13:57;27.48;;;11.55;;
75413;SDS011;64758;52.122;5.404;2023-02-15T05:16:24;21.80;;;10.97;;
75413;SDS011;64758;52.122;5.404;2023-02-15T05:18:51;22.25;;;11.13;;
75413;SDS011;64758;52.122;5.404;2023-02-15T05:21:18;26.73;;;11.80;;
75413;SDS011;64758;52.122;5.404;2023-02-15T05:23:44;26.38;;;12.05;;
75413;SDS011;64758;52.122;5.404;2023-02-15T05:26:12;27.98;;;12.18;;
75413;SDS011;64758;52.122;5.404;2023-02-15T05:29:00;25.70;;;11.50;;
75413;SDS011;64758;52.122;5.404;2023-02-15T05:31:26;25.15;;;11.95;;
75413;SDS011;64758;52.122;5.404;2023-02-15T05:33:53;22.42;;;11.65;;
75413;SDS011;64758;52.122;5.404;2023-02-15T05:36:20;26.38;;;12.00;;
75413;SDS011;64758;52.122;5.404;2023-02-15T05:38:46;23.88;;;11.60;;
75413;SDS011;64758;52.122;5.404;2023-02-15T05:41:13;23.60;;;12.13;;
75413;SDS011;64758;52.122;5.404;2023-02-15T05:43:39;25.80;;;11.43;;
75413;SDS011;64758;52.122;5.404;2023-02-15T05:46:06;22.40;;;10.80;;
75413;SDS011;64758;52.122;5.404;2023-02-15T05:48:34;22.00;;;11.77;;
75413;SDS011;64758;52.122;5.404;2023-02-15T05:51:05;23.02;;;11.68;;
75413;SDS011;64758;52.122;5.404;2023-02-15T05:53:37;29.50;;;12.63;;
75413;SDS011;64758;52.122;5.404;2023-02-15T05:56:06;28.73;;;11.68;;
75413;SDS011;64758;52.122;5.404;2023-02-15T05:58:38;23.30;;;11.82;;
75413;SDS011;64758;52.122;5.404;2023-02-15T06:01:16;24.15;;;11.90;;
75413;SDS011;64758;52.122;5.404;2023-02-15T06:03:44;24.25;;;11.95;;
75413;SDS011;64758;52.122;5.404;2023-02-15T06:06:12;24.23;;;11.90;;
75413;SDS011;64758;52.122;5.404;2023-02-15T06:08:38;29.17;;;12.00;;
75413;SDS011;64758;52.122;5.404;2023-02-15T06:11:05;21.67;;;11.02;;
75413;SDS011;64758;52.122;5.404;2023-02-15T06:13:32;27.60;;;11.48;;
75413;SDS011;64758;52.122;5.404;2023-02-15T06:16:03;26.33;;;12.18;;
75413;SDS011;64758;52.122;5.404;2023-02-15T06:18:31;23.23;;;12.10;;
75413;SDS011;64758;52.122;5.404;2023-02-15T06:20:57;24.70;;;11.40;;
75413;SDS011;64758;52.122;5.404;2023-02-15T06:23:24;21.27;;;11.05;;
75413;SDS011;64758;52.122;5.404;2023-02-15T06:25:50;24.90;;;11.70;;
75413;SDS011;64758;52.122;5.404;2023-02-15T06:28:17;29.42;;;12.10;;
75413;SDS011;64758;52.122;5.404;2023-02-15T06:30:43;23.83;;;10.70;;
75413;SDS011;64758;52.122;5.404;2023-02-15T06:33:10;29.95;;;12.70;;
75413;SDS011;64758;52.122;5.404;2023-02-15T06:35:36;25.15;;;10.90;;
75413;SDS011;64758;52.122;5.404;2023-02-15T06:38:03;25.65;;;12.15;;
75413;SDS011;64758;52.122;5.404;2023-02-15T06:40:29;25.33;;;11.85;;
75413;SDS011;64758;52.122;5.404;2023-02-15T06:42:56;23.67;;;11.87;;
75413;SDS011;64758;52.122;5.404;2023-02-15T06:45:23;21.60;;;10.45;;
75413;SDS011;64758;52.122;5.404;2023-02-15T06:47:49;25.20;;;12.48;;
75413;SDS011;64758;52.122;5.404;2023-02-15T06:50:16;26.27;;;12.05;;
75413;SDS011;64758;52.122;5.404;2023-02-15T06:52:42;24.83;;;12.40;;
75413;SDS011;64758;52.122;5.404;2023-02-15T06:55:09;25.50;;;11.30;;
75413;SDS011;64758;52.122;5.404;2023-02-15T06:57:35;25.42;;;11.10;;
75413;SDS011;64758;52.122;5.404;2023-02-15T07:00:02;24.73;;;12.10;;
75413;SDS011;64758;52.122;5.404;2023-02-15T07:02:31;24.05;;;11.50;;
75413;SDS011;64758;52.122;5.404;2023-02-15T07:04:57;25.60;;;12.57;;
75413;SDS011;64758;52.122;5.404;2023-02-15T07:07:24;26.30;;;11.37;;
75413;SDS011;64758;52.122;5.404;2023-02-15T07:09:51;24.73;;;11.70;;
75413;SDS011;64758;52.122;5.404;2023-02-15T07:12:17;23.33;;;11.75;;
75413;SDS011;64758;52.122;5.404;2023-02-15T07:15:02;23.98;;;12.25;;
75413;SDS011;64758;52.122;5.404;2023-02-15T07:17:32;25.52;;;11.93;;
75413;SDS011;64758;52.122;5.404;2023-02-15T07:20:05;23.17;;;11.70;;
75413;SDS011;64758;52.122;5.404;2023-02-15T07:22:34;23.55;;;11.80;;
75413;SDS011;64758;52.122;5.404;2023-02-15T07:25:03;25.15;;;11.65;;
75413;SDS011;64758;52.122;5.404;2023-02-15T07:27:30;23.38;;;11.73;;
75413;SDS011;64758;52.122;5.404;2023-02-15T07:29:58;26.27;;;12.73;;
75413;SDS011;64758;52.122;5.404;2023-02-15T07:32:32;22.77;;;11.00;;
75413;SDS011;64758;52.122;5.404;2023-02-15T07:34:59;24.83;;;11.63;;
75413;SDS011;64758;52.122;5.404;2023-02-15T07:37:26;24.92;;;11.63;;
75413;SDS011;64758;52.122;5.404;2023-02-15T07:39:53;23.75;;;12.18;;
75413;SDS011;64758;52.122;5.404;2023-02-15T07:42:20;26.65;;;12.25;;
75413;SDS011;64758;52.122;5.404;2023-02-15T07:44:48;24.47;;;11.40;;
75413;SDS011;64758;52.122;5.404;2023-02-15T07:47:14;26.70;;;11.85;;
75413;SDS011;64758;52.122;5.404;2023-02-15T07:49:41;27.13;;;12.13;;
75413;SDS011;64758;52.122;5.404;2023-02-15T07:52:07;25.92;;;11.68;;
75413;SDS011;64758;52.122;5.404;2023-02-15T07:54:34;23.17;;;11.30;;
75413;SDS011;64758;52.122;5.404;2023-02-15T07:57:01;28.53;;;12.00;;
75413;SDS011;64758;52.122;5.404;2023-02-15T07:59:28;27.40;;;12.02;;
75413;SDS011;64758;52.122;5.404;2023-02-15T08:01:54;25.50;;;12.13;;
75413;SDS011;64758;52.122;5.404;2023-02-15T08:04:22;23.50;;;11.55;;
75413;SDS011;64758;52.122;5.404;2023-02-15T08:06:52;22.65;;;11.75;;
75413;SDS011;64758;52.122;5.404;2023-02-15T08:09:20;26.70;;;12.17;;
75413;SDS011;64758;52.122;5.404;2023-02-15T08:11:48;27.77;;;11.95;;
75413;SDS011;64758;52.122;5.404;2023-02-15T08:14:18;27.05;;;12.75;;
75413;SDS011;64758;52.122;5.404;2023-02-15T08:19:19;27.85;;;11.82;;
75413;SDS011;64758;52.122;5.404;2023-02-15T08:21:49;26.90;;;12.83;;
75413;SDS011;64758;52.122;5.404;2023-02-15T08:24:17;27.25;;;13.50;;
75413;SDS011;64758;52.122;5.404;2023-02-15T08:26:45;29.55;;;12.82;;
75413;SDS011;64758;52.122;5.404;2023-02-15T08:29:14;27.45;;;13.30;;
75413;SDS011;64758;52.122;5.404;2023-02-15T08:31:42;26.08;;;13.02;;
75413;SDS011;64758;52.122;5.404;2023-02-15T08:34:10;28.90;;;13.57;;
75413;SDS011;64758;52.122;5.404;2023-02-15T08:36:39;27.15;;;13.93;;
75413;SDS011;64758;52.122;5.404;2023-02-15T08:39:06;32.20;;;13.95;;
75413;SDS011;64758;52.122;5.404;2023-02-15T08:41:34;32.20;;;14.82;;
75413;SDS011;64758;52.122;5.404;2023-02-15T08:44:03;29.27;;;14.63;;
75413;SDS011;64758;52.122;5.404;2023-02-15T08:46:35;29.70;;;13.33;;
75413;SDS011;64758;52.122;5.404;2023-02-15T08:49:04;32.95;;;14.02;;
75413;SDS011;64758;52.122;5.404;2023-02-15T08:51:32;29.58;;;15.25;;
75413;SDS011;64758;52.122;5.404;2023-02-15T08:54:01;32.83;;;15.18;;
75413;SDS011;64758;52.122;5.404;2023-02-15T08:56:34;30.88;;;15.25;;
75413;SDS011;64758;52.122;5.404;2023-02-15T08:59:03;29.33;;;15.60;;
75413;SDS011;64758;52.122;5.404;2023-02-15T09:01:31;34.78;;;15.30;;
75413;SDS011;64758;52.122;5.404;2023-02-15T09:04:00;34.00;;;16.27;;
75413;SDS011;64758;52.122;5.404;2023-02-15T09:06:30;34.75;;;16.05;;
75413;SDS011;64758;52.122;5.404;2023-02-15T09:08:57;32.55;;;15.77;;
75413;SDS011;64758;52.122;5.404;2023-02-15T09:11:27;40.23;;;17.77;;
75413;SDS011;64758;52.122;5.404;2023-02-15T09:14:05;33.15;;;16.13;;
75413;SDS011;64758;52.122;5.404;2023-02-15T09:16:36;32.78;;;15.68;;
75413;SDS011;64758;52.122;5.404;2023-02-15T09:19:04;40.85;;;18.05;;
75413;SDS011;64758;52.122;5.404;2023-02-15T09:21:32;36.47;;;17.45;;
75413;SDS011;64758;52.122;5.404;2023-02-15T09:24:02;36.60;;;16.50;;
75413;SDS011;64758;52.122;5.404;2023-02-15T09:26:31;38.10;;;18.15;;
75413;SDS011;64758;52.122;5.404;2023-02-15T09:29:00;35.08;;;17.20;;
75413;SDS011;64758;52.122;5.404;2023-02-15T09:31:31;36.47;;;17.25;;
75413;SDS011;64758;52.122;5.404;2023-02-15T09:34:00;34.25;;;17.65;;
75413;SDS011;64758;52.122;5.404;2023-02-15T09:36:37;33.80;;;16.80;;
75413;SDS011;64758;52.122;5.404;2023-02-15T09:44:28;40.42;;;17.80;;
75413;SDS011;64758;52.122;5.404;2023-02-15T09:55:28;35.75;;;17.65;;
75413;SDS011;64758;52.122;5.404;2023-02-15T10:07:16;31.65;;;17.58;;
75413;SDS011;64758;52.122;5.404;2023-02-15T10:18:29;35.60;;;17.53;;
75413;SDS011;64758;52.122;5.404;2023-02-15T10:28:48;35.00;;;17.20;;
75413;SDS011;64758;52.122;5.404;2023-02-15T10:50:45;34.38;;;17.25;;
75413;SDS011;64758;52.122;5.404;2023-02-15T10:56:17;33.22;;;18.45;;
75413;SDS011;64758;52.122;5.404;2023-02-15T11:07:19;34.47;;;17.17;;
75413;SDS011;64758;52.122;5.404;2023-02-15T11:09:55;38.72;;;18.38;;
75413;SDS011;64758;52.122;5.404;2023-02-15T11:12:28;36.90;;;17.80;;
75413;SDS011;64758;52.122;5.404;2023-02-15T11:18:03;31.27;;;17.10;;
75413;SDS011;64758;52.122;5.404;2023-02-15T11:23:22;35.83;;;17.02;;
75413;SDS011;64758;52.122;5.404;2023-02-15T11:26:00;33.63;;;17.97;;
75413;SDS011;64758;52.122;5.404;2023-02-15T11:28:31;32.72;;;17.70;;
75413;SDS011;64758;52.122;5.404;2023-02-15T11:31:02;34.75;;;18.35;;
75413;SDS011;64758;52.122;5.404;2023-02-15T11:33:44;33.25;;;17.88;;
75413;SDS011;64758;52.122;5.404;2023-02-15T11:36:15;33.78;;;17.85;;
75413;SDS011;64758;52.122;5.404;2023-02-15T11:38:46;38.10;;;18.70;;
75413;SDS011;64758;52.122;5.404;2023-02-15T11:41:22;34.30;;;17.75;;
75413;SDS011;64758;52.122;5.404;2023-02-15T11:46:41;35.45;;;18.45;;
75413;SDS011;64758;52.122;5.404;2023-02-15T11:49:21;30.42;;;17.58;;
75413;SDS011;64758;52.122;5.404;2023-02-15T11:51:55;38.77;;;19.17;;
75413;SDS011;64758;52.122;5.404;2023-02-15T11:54:27;35.42;;;18.17;;
75413;SDS011;64758;52.122;5.404;2023-02-15T11:57:39;35.25;;;18.17;;
75413;SDS011;64758;52.122;5.404;2023-02-15T12:00:01;37.15;;;17.92;;
75413;SDS011;64758;52.122;5.404;2023-02-15T12:02:37;38.95;;;18.45;;
75413;SDS011;64758;52.122;5.404;2023-02-15T12:05:09;32.90;;;18.03;;
75413;SDS011;64758;52.122;5.404;2023-02-15T12:07:45;39.42;;;18.35;;
75413;SDS011;64758;52.122;5.404;2023-02-15T12:13:10;31.42;;;17.50;;
75413;SDS011;64758;52.122;5.404;2023-02-15T12:15:48;37.40;;;19.65;;
75413;SDS011;64758;52.122;5.404;2023-02-15T12:18:21;35.03;;;19.03;;
75413;SDS011;64758;52.122;5.404;2023-02-15T12:21:02;36.92;;;18.83;;
75413;SDS011;64758;52.122;5.404;2023-02-15T12:26:10;37.15;;;18.95;;
75413;SDS011;64758;52.122;5.404;2023-02-15T12:28:48;35.08;;;19.25;;
75413;SDS011;64758;52.122;5.404;2023-02-15T12:31:22;36.60;;;18.40;;
75413;SDS011;64758;52.122;5.404;2023-02-15T12:33:53;34.45;;;18.05;;
75413;SDS011;64758;52.122;5.404;2023-02-15T12:36:27;34.90;;;18.75;;
75413;SDS011;64758;52.122;5.404;2023-02-15T12:39:03;39.45;;;20.25;;
75413;SDS011;64758;52.122;5.404;2023-02-15T12:44:25;32.97;;;18.10;;
75413;SDS011;64758;52.122;5.404;2023-02-15T12:46:58;35.13;;;18.15;;
75413;SDS011;64758;52.122;5.404;2023-02-15T12:49:29;42.03;;;20.00;;
75413;SDS011;64758;52.122;5.404;2023-02-15T12:52:03;35.53;;;19.25;;
75413;SDS011;64758;52.122;5.404;2023-02-15T12:54:48;37.30;;;19.27;;
75413;SDS011;64758;52.122;5.404;2023-02-15T12:57:22;38.43;;;20.30;;
75413;SDS011;64758;52.122;5.404;2023-02-15T13:03:03;35.33;;;18.50;;
75413;SDS011;64758;52.122;5.404;2023-02-15T13:05:39;36.33;;;18.85;;
75413;SDS011;64758;52.122;5.404;2023-02-15T13:08:17;35.05;;;19.77;;
75413;SDS011;64758;52.122;5.404;2023-02-15T13:10:54;34.17;;;19.30;;
75413;SDS011;64758;52.122;5.404;2023-02-15T13:13:22;37.00;;;19.98;;
75413;SDS011;64758;52.122;5.404;2023-02-15T13:15:52;40.00;;;20.42;;
75413;SDS011;64758;52.122;5.404;2023-02-15T13:18:41;35.45;;;18.80;;
75413;SDS011;64758;52.122;5.404;2023-02-15T13:21:12;35.97;;;19.63;;
75413;SDS011;64758;52.122;5.404;2023-02-15T13:23:44;30.87;;;18.03;;
75413;SDS011;64758;52.122;5.404;2023-02-15T13:26:15;39.55;;;19.13;;
75413;SDS011;64758;52.122;5.404;2023-02-15T13:28:46;41.63;;;20.17;;
75413;SDS011;64758;52.122;5.404;2023-02-15T13:31:19;36.10;;;19.45;;
75413;SDS011;64758;52.122;5.404;2023-02-15T13:33:51;37.53;;;19.35;;
75413;SDS011;64758;52.122;5.404;2023-02-15T13:39:17;37.13;;;20.02;;
75413;SDS011;64758;52.122;5.404;2023-02-15T13:52:54;37.60;;;20.25;;
75413;SDS011;64758;52.122;5.404;2023-02-15T13:58:25;34.67;;;19.73;;
75413;SDS011;64758;52.122;5.404;2023-02-15T14:01:21;39.85;;;19.83;;
75413;SDS011;64758;52.122;5.404;2023-02-15T14:21:15;35.92;;;20.05;;
75413;SDS011;64758;52.122;5.404;2023-02-15T14:26:44;39.58;;;20.45;;
75413;SDS011;64758;52.122;5.404;2023-02-15T14:31:59;38.53;;;19.33;;
75413;SDS011;64758;52.122;5.404;2023-02-15T14:34:56;35.80;;;20.23;;
75413;SDS011;64758;52.122;5.404;2023-02-15T14:37:26;39.10;;;21.33;;
75413;SDS011;64758;52.122;5.404;2023-02-15T14:49:03;41.00;;;20.48;;
75413;SDS011;64758;52.122;5.404;2023-02-15T14:54:10;36.28;;;20.63;;
75413;SDS011;64758;52.122;5.404;2023-02-15T14:59:42;40.63;;;21.97;;
75413;SDS011;64758;52.122;5.404;2023-02-15T15:02:20;39.72;;;22.33;;
75413;SDS011;64758;52.122;5.404;2023-02-15T15:07:41;40.08;;;21.38;;
75413;SDS011;64758;52.122;5.404;2023-02-15T15:12:45;37.23;;;20.00;;
75413;SDS011;64758;52.122;5.404;2023-02-15T15:15:32;38.60;;;19.60;;
75413;SDS011;64758;52.122;5.404;2023-02-15T15:18:10;36.38;;;20.05;;
75413;SDS011;64758;52.122;5.404;2023-02-15T15:21:10;36.42;;;19.40;;
75413;SDS011;64758;52.122;5.404;2023-02-15T15:23:40;37.47;;;20.77;;
75413;SDS011;64758;52.122;5.404;2023-02-15T15:37:04;35.53;;;19.85;;
75413;SDS011;64758;52.122;5.404;2023-02-15T15:51:02;33.83;;;19.02;;
75413;SDS011;64758;52.122;5.404;2023-02-15T15:53:35;37.17;;;18.83;;
75413;SDS011;64758;52.122;5.404;2023-02-15T15:56:09;36.92;;;20.20;;
75413;SDS011;64758;52.122;5.404;2023-02-15T15:58:42;32.13;;;18.40;;
75413;SDS011;64758;52.122;5.404;2023-02-15T16:01:14;40.60;;;19.00;;
75413;SDS011;64758;52.122;5.404;2023-02-15T16:03:50;38.30;;;20.35;;
75413;SDS011;64758;52.122;5.404;2023-02-15T16:06:28;38.37;;;19.17;;
75413;SDS011;64758;52.122;5.404;2023-02-15T16:09:13;36.08;;;19.33;;
75413;SDS011;64758;52.122;5.404;2023-02-15T16:11:48;36.97;;;19.95;;
75413;SDS011;64758;52.122;5.404;2023-02-15T16:17:05;35.83;;;18.90;;
75413;SDS011;64758;52.122;5.404;2023-02-15T16:19:40;31.83;;;18.43;;
75413;SDS011;64758;52.122;5.404;2023-02-15T16:22:11;35.22;;;20.00;;
75413;SDS011;64758;52.122;5.404;2023-02-15T16:25:00;36.85;;;18.40;;
75413;SDS011;64758;52.122;5.404;2023-02-15T16:27:32;34.10;;;19.73;;
75413;SDS011;64758;52.122;5.404;2023-02-15T16:30:20;38.58;;;20.35;;
75413;SDS011;64758;52.122;5.404;2023-02-15T16:32:57;40.40;;;20.33;;
75413;SDS011;64758;52.122;5.404;2023-02-15T16:35:29;38.10;;;20.05;;
75413;SDS011;64758;52.122;5.404;2023-02-15T16:37:56;38.40;;;19.70;;
75413;SDS011;64758;52.122;5.404;2023-02-15T16:42:49;40.17;;;22.33;;
75413;SDS011;64758;52.122;5.404;2023-02-15T16:45:18;42.57;;;21.07;;
75413;SDS011;64758;52.122;5.404;2023-02-15T16:47:49;36.25;;;20.70;;
75413;SDS011;64758;52.122;5.404;2023-02-15T16:50:18;39.30;;;20.80;;
75413;SDS011;64758;52.122;5.404;2023-02-15T16:52:47;45.78;;;24.30;;
75413;SDS011;64758;52.122;5.404;2023-02-15T16:55:21;44.25;;;23.73;;
75413;SDS011;64758;52.122;5.404;2023-02-15T16:57:49;48.23;;;24.07;;
75413;SDS011;64758;52.122;5.404;2023-02-15T17:00:21;43.08;;;22.73;;
75413;SDS011;64758;52.122;5.404;2023-02-15T17:02:58;49.47;;;24.38;;
75413;SDS011;64758;52.122;5.404;2023-02-15T17:05:32;48.40;;;25.40;;
75413;SDS011;64758;52.122;5.404;2023-02-15T17:13:27;48.25;;;25.42;;
75413;SDS011;64758;52.122;5.404;2023-02-15T17:18:34;44.78;;;20.83;;
75413;SDS011;64758;52.122;5.404;2023-02-15T17:21:13;41.08;;;21.25;;
75413;SDS011;64758;52.122;5.404;2023-02-15T17:23:48;41.63;;;21.80;;
75413;SDS011;64758;52.122;5.404;2023-02-15T17:26:21;39.90;;;21.63;;
75413;SDS011;64758;52.122;5.404;2023-02-15T17:28:54;46.30;;;23.35;;
75413;SDS011;64758;52.122;5.404;2023-02-15T17:31:24;43.10;;;21.38;;
75413;SDS011;64758;52.122;5.404;2023-02-15T17:33:54;46.63;;;21.33;;
75413;SDS011;64758;52.122;5.404;2023-02-15T17:36:23;46.90;;;24.60;;
75413;SDS011;64758;52.122;5.404;2023-02-15T17:41:24;43.42;;;23.45;;
75413;SDS011;64758;52.122;5.404;2023-02-15T17:43:55;47.05;;;22.98;;
75413;SDS011;64758;52.122;5.404;2023-02-15T17:46:22;49.88;;;25.98;;
75413;SDS011;64758;52.122;5.404;2023-02-15T17:48:53;51.00;;;26.27;;
75413;SDS011;64758;52.122;5.404;2023-02-15T17:51:21;52.67;;;24.35;;
75413;SDS011;64758;52.122;5.404;2023-02-15T17:53:48;50.65;;;24.95;;
75413;SDS011;64758;52.122;5.404;2023-02-15T17:56:34;47.20;;;22.83;;
75413;SDS011;64758;52.122;5.404;2023-02-15T17:59:02;44.28;;;21.80;;
75413;SDS011;64758;52.122;5.404;2023-02-15T18:01:36;47.00;;;23.07;;
75413;SDS011;64758;52.122;5.404;2023-02-15T18:04:26;45.45;;;22.42;;
75413;SDS011;64758;52.122;5.404;2023-02-15T18:07:11;50.28;;;25.42;;
75413;SDS011;64758;52.122;5.404;2023-02-15T18:09:56;47.53;;;24.25;;
75413;SDS011;64758;52.122;5.404;2023-02-15T18:12:41;44.75;;;24.08;;
75413;SDS011;64758;52.122;5.404;2023-02-15T18:15:08;51.87;;;25.00;;
75413;SDS011;64758;52.122;5.404;2023-02-15T18:17:39;47.10;;;24.65;;
75413;SDS011;64758;52.122;5.404;2023-02-15T18:22:46;78.78;;;39.03;;
75413;SDS011;64758;52.122;5.404;2023-02-15T18:25:13;73.05;;;37.13;;
75413;SDS011;64758;52.122;5.404;2023-02-15T18:27:42;58.00;;;30.33;;
75413;SDS011;64758;52.122;5.404;2023-02-15T18:30:12;61.63;;;31.92;;
75413;SDS011;64758;52.122;5.404;2023-02-15T18:32:41;55.63;;;27.70;;
75413;SDS011;64758;52.122;5.404;2023-02-15T18:35:12;55.42;;;27.10;;
75413;SDS011;64758;52.122;5.404;2023-02-15T18:37:41;51.13;;;24.17;;